sensor_id;sensor_type;location;lat;lon;timestamp;pressure;altitude;pressure_sealevel;temperature;humidity
57412;BME280;43247;52.828;-8.980;2024-02-14T00:00:49;100167.06;;;8.23;97.66
57412;BME280;43247;52.828;-8.980;2024-02-14T00:01:50;100168.21;;;8.25;97.55
57412;BME280;43247;52.828;-8.980;2024-02-14T00:02:50;100168.13;;;8.25;97.51
57412;BME280;43247;52.828;-8.980;2024-02-14T00:03:50;100168.07;;;8.26;97.47
57412;BME280;43247;52.828;-8.980;2024-02-14T00:04:50;100166.48;;;8.25;97.51
57412;BME280;43247;52.828;-8.980;2024-02-14T00:05:50;100165.94;;;8.24;97.55
57412;BME280;43247;52.828;-8.980;2024-02-14T00:06:51;100161.77;;;8.23;97.61
57412;BME280;43247;52.828;-8.980;2024-02-14T00:07:51;100163.49;;;8.22;97.64
57412;BME280;43247;52.828;-8.980;2024-02-14T00:08:51;100164.09;;;8.22;97.66
57412;BME280;43247;52.828;-8.980;2024-02-14T00:09:51;100165.78;;;8.21;97.67
57412;BME280;43247;52.828;-8.980;2024-02-14T00:10:51;100165.99;;;8.21;97.70
57412;BME280;43247;52.828;-8.980;2024-02-14T00:11:51;100167.59;;;8.21;97.69
57412;BME280;43247;52.828;-8.980;2024-02-14T00:12:52;100167.52;;;8.21;97.70
57412;BME280;43247;52.828;-8.980;2024-02-14T00:13:52;100167.96;;;8.21;97.75
57412;BME280;43247;52.828;-8.980;2024-02-14T00:14:52;100168.99;;;8.21;97.75
57412;BME280;43247;52.828;-8.980;2024-02-14T00:15:52;100169.31;;;8.21;97.82
57412;BME280;43247;52.828;-8.980;2024-02-14T00:16:52;100168.18;;;8.20;97.82
57412;BME280;43247;52.828;-8.980;2024-02-14T00:17:53;100170.17;;;8.20;97.79
57412;BME280;43247;52.828;-8.980;2024-02-14T00:18:53;100166.53;;;8.20;97.82
57412;BME280;43247;52.828;-8.980;2024-02-14T00:19:53;100167.76;;;8.20;97.83
57412;BME280;43247;52.828;-8.980;2024-02-14T00:20:53;100170.23;;;8.20;97.82
57412;BME280;43247;52.828;-8.980;2024-02-14T00:21:53;100175.03;;;8.20;97.85
57412;BME280;43247;52.828;-8.980;2024-02-14T00:22:53;100172.77;;;8.19;97.87
57412;BME280;43247;52.828;-8.980;2024-02-14T00:23:54;100175.80;;;8.20;97.87
57412;BME280;43247;52.828;-8.980;2024-02-14T00:24:54;100174.47;;;8.19;97.87
57412;BME280;43247;52.828;-8.980;2024-02-14T00:25:54;100174.46;;;8.19;97.90
57412;BME280;43247;52.828;-8.980;2024-02-14T00:26:54;100174.35;;;8.18;97.88
57412;BME280;43247;52.828;-8.980;2024-02-14T00:27:54;100175.06;;;8.19;97.88
57412;BME280;43247;52.828;-8.980;2024-02-14T00:28:55;100173.21;;;8.18;97.92
57412;BME280;43247;52.828;-8.980;2024-02-14T00:29:55;100171.34;;;8.18;97.91
57412;BME280;43247;52.828;-8.980;2024-02-14T00:30:56;100171.61;;;8.19;97.91
57412;BME280;43247;52.828;-8.980;2024-02-14T00:31:56;100170.49;;;8.19;97.90
57412;BME280;43247;52.828;-8.980;2024-02-14T00:32:56;100169.58;;;8.18;97.92
57412;BME280;43247;52.828;-8.980;2024-02-14T00:33:56;100166.38;;;8.18;97.90
57412;BME280;43247;52.828;-8.980;2024-02-14T00:34:56;100164.07;;;8.19;97.90
57412;BME280;43247;52.828;-8.980;2024-02-14T00:35:57;100162.67;;;8.18;97.89
57412;BME280;43247;52.828;-8.980;2024-02-14T00:36:57;100161.76;;;8.18;97.89
57412;BME280;43247;52.828;-8.980;2024-02-14T00:37:57;100164.36;;;8.18;97.89
57412;BME280;43247;52.828;-8.980;2024-02-14T00:38:57;100165.97;;;8.18;97.89
57412;BME280;43247;52.828;-8.980;2024-02-14T00:39:57;100165.21;;;8.18;97.90
57412;BME280;43247;52.828;-8.980;2024-02-14T00:40:57;100164.93;;;8.18;97.91
57412;BME280;43247;52.828;-8.980;2024-02-14T00:41:58;100167.16;;;8.19;97.88
57412;BME280;43247;52.828;-8.980;2024-02-14T00:42:58;100169.22;;;8.18;97.89
57412;BME280;43247;52.828;-8.980;2024-02-14T00:43:58;100166.65;;;8.18;97.87
57412;BME280;43247;52.828;-8.980;2024-02-14T00:44:59;100165.89;;;8.18;97.87
57412;BME280;43247;52.828;-8.980;2024-02-14T00:45:59;100167.15;;;8.18;97.90
57412;BME280;43247;52.828;-8.980;2024-02-14T00:46:59;100163.68;;;8.18;97.87
57412;BME280;43247;52.828;-8.980;2024-02-14T00:47:59;100162.26;;;8.18;97.87
57412;BME280;43247;52.828;-8.980;2024-02-14T00:48:59;100160.59;;;8.18;97.87
57412;BME280;43247;52.828;-8.980;2024-02-14T00:50:00;100161.22;;;8.18;97.87
57412;BME280;43247;52.828;-8.980;2024-02-14T00:51:00;100163.35;;;8.18;97.86
57412;BME280;43247;52.828;-8.980;2024-02-14T00:52:01;100164.48;;;8.18;97.87
57412;BME280;43247;52.828;-8.980;2024-02-14T00:53:01;100163.09;;;8.17;97.90
57412;BME280;43247;52.828;-8.980;2024-02-14T00:54:01;100166.54;;;8.17;97.87
57412;BME280;43247;52.828;-8.980;2024-02-14T00:55:01;100166.33;;;8.17;97.86
57412;BME280;43247;52.828;-8.980;2024-02-14T00:56:01;100163.20;;;8.16;97.92
57412;BME280;43247;52.828;-8.980;2024-02-14T00:57:02;100162.98;;;8.16;97.94
57412;BME280;43247;52.828;-8.980;2024-02-14T00:58:02;100160.57;;;8.15;97.97
57412;BME280;43247;52.828;-8.980;2024-02-14T00:59:02;100160.01;;;8.15;97.96
57412;BME280;43247;52.828;-8.980;2024-02-14T01:00:05;100160.56;;;8.15;97.95
57412;BME280;43247;52.828;-8.980;2024-02-14T01:01:04;100160.69;;;8.15;97.96
57412;BME280;43247;52.828;-8.980;2024-02-14T01:02:04;100163.91;;;8.14;97.96
57412;BME280;43247;52.828;-8.980;2024-02-14T01:03:06;100169.15;;;8.14;97.97
57412;BME280;43247;52.828;-8.980;2024-02-14T01:04:05;100166.76;;;8.14;97.99
57412;BME280;43247;52.828;-8.980;2024-02-14T01:05:06;100168.67;;;8.13;97.99
57412;BME280;43247;52.828;-8.980;2024-02-14T01:06:05;100169.05;;;8.13;98.01
57412;BME280;43247;52.828;-8.980;2024-02-14T01:07:05;100167.69;;;8.13;98.01
57412;BME280;43247;52.828;-8.980;2024-02-14T01:08:06;100171.17;;;8.12;98.04
57412;BME280;43247;52.828;-8.980;2024-02-14T01:09:05;100169.82;;;8.12;98.06
57412;BME280;43247;52.828;-8.980;2024-02-14T01:10:07;100166.97;;;8.11;98.08
57412;BME280;43247;52.828;-8.980;2024-02-14T01:11:06;100166.37;;;8.10;98.08
57412;BME280;43247;52.828;-8.980;2024-02-14T01:12:06;100167.15;;;8.11;98.09
57412;BME280;43247;52.828;-8.980;2024-02-14T01:13:06;100166.76;;;8.10;98.06
57412;BME280;43247;52.828;-8.980;2024-02-14T01:14:07;100163.40;;;8.10;98.10
57412;BME280;43247;52.828;-8.980;2024-02-14T01:15:07;100165.21;;;8.10;98.08
57412;BME280;43247;52.828;-8.980;2024-02-14T01:16:07;100163.04;;;8.09;98.08
57412;BME280;43247;52.828;-8.980;2024-02-14T01:17:07;100164.67;;;8.09;98.09
57412;BME280;43247;52.828;-8.980;2024-02-14T01:18:07;100166.00;;;8.09;98.09
57412;BME280;43247;52.828;-8.980;2024-02-14T01:19:07;100168.62;;;8.09;98.09
57412;BME280;43247;52.828;-8.980;2024-02-14T01:20:08;100170.59;;;8.09;98.09
57412;BME280;43247;52.828;-8.980;2024-02-14T01:21:08;100171.67;;;8.09;98.10
57412;BME280;43247;52.828;-8.980;2024-02-14T01:22:08;100168.73;;;8.09;98.08
57412;BME280;43247;52.828;-8.980;2024-02-14T01:23:08;100167.40;;;8.09;98.08
57412;BME280;43247;52.828;-8.980;2024-02-14T01:24:08;100167.36;;;8.09;98.09
57412;BME280;43247;52.828;-8.980;2024-02-14T01:25:08;100165.05;;;8.09;98.09
57412;BME280;43247;52.828;-8.980;2024-02-14T01:26:09;100166.78;;;8.09;98.10
57412;BME280;43247;52.828;-8.980;2024-02-14T01:27:09;100166.08;;;8.09;98.10
57412;BME280;43247;52.828;-8.980;2024-02-14T01:28:09;100167.47;;;8.09;98.10
57412;BME280;43247;52.828;-8.980;2024-02-14T01:29:09;100168.53;;;8.09;98.13
57412;BME280;43247;52.828;-8.980;2024-02-14T01:30:11;100164.07;;;8.09;98.11
57412;BME280;43247;52.828;-8.980;2024-02-14T01:31:10;100165.46;;;8.09;98.11
57412;BME280;43247;52.828;-8.980;2024-02-14T01:32:10;100165.94;;;8.09;98.09
57412;BME280;43247;52.828;-8.980;2024-02-14T01:33:10;100168.77;;;8.09;98.10
57412;BME280;43247;52.828;-8.980;2024-02-14T01:34:10;100167.72;;;8.10;98.08
57412;BME280;43247;52.828;-8.980;2024-02-14T01:35:10;100166.28;;;8.09;98.08
57412;BME280;43247;52.828;-8.980;2024-02-14T01:36:10;100165.05;;;8.10;98.05
57412;BME280;43247;52.828;-8.980;2024-02-14T01:37:11;100164.52;;;8.09;98.05
57412;BME280;43247;52.828;-8.980;2024-02-14T01:38:11;100165.84;;;8.10;98.04
57412;BME280;43247;52.828;-8.980;2024-02-14T01:39:11;100165.18;;;8.10;98.02
57412;BME280;43247;52.828;-8.980;2024-02-14T01:40:12;100164.98;;;8.10;98.03
57412;BME280;43247;52.828;-8.980;2024-02-14T01:41:11;100164.22;;;8.10;98.01
57412;BME280;43247;52.828;-8.980;2024-02-14T01:42:12;100164.62;;;8.10;98.04
57412;BME280;43247;52.828;-8.980;2024-02-14T01:43:12;100167.20;;;8.10;98.01
57412;BME280;43247;52.828;-8.980;2024-02-14T01:44:12;100165.11;;;8.11;97.99
57412;BME280;43247;52.828;-8.980;2024-02-14T01:45:13;100166.33;;;8.11;98.00
57412;BME280;43247;52.828;-8.980;2024-02-14T01:46:13;100168.74;;;8.12;97.98
57412;BME280;43247;52.828;-8.980;2024-02-14T01:47:13;100170.31;;;8.11;97.99
57412;BME280;43247;52.828;-8.980;2024-02-14T01:48:13;100168.86;;;8.12;98.00
57412;BME280;43247;52.828;-8.980;2024-02-14T01:49:14;100165.06;;;8.11;97.99
57412;BME280;43247;52.828;-8.980;2024-02-14T01:50:13;100165.68;;;8.12;97.97
57412;BME280;43247;52.828;-8.980;2024-02-14T01:51:13;100165.22;;;8.12;97.96
57412;BME280;43247;52.828;-8.980;2024-02-14T01:52:14;100157.76;;;8.13;97.97
57412;BME280;43247;52.828;-8.980;2024-02-14T01:53:14;100157.88;;;8.13;97.95
57412;BME280;43247;52.828;-8.980;2024-02-14T01:54:15;100157.28;;;8.13;97.92
57412;BME280;43247;52.828;-8.980;2024-02-14T01:55:14;100159.54;;;8.13;97.92
57412;BME280;43247;52.828;-8.980;2024-02-14T01:56:14;100157.43;;;8.13;97.93
57412;BME280;43247;52.828;-8.980;2024-02-14T01:57:15;100158.50;;;8.13;97.90
57412;BME280;43247;52.828;-8.980;2024-02-14T01:58:15;100156.23;;;8.13;97.88
57412;BME280;43247;52.828;-8.980;2024-02-14T01:59:15;100156.30;;;8.13;97.85
57412;BME280;43247;52.828;-8.980;2024-02-14T02:00:16;100154.76;;;8.14;97.83
57412;BME280;43247;52.828;-8.980;2024-02-14T02:01:16;100154.60;;;8.14;97.84
57412;BME280;43247;52.828;-8.980;2024-02-14T02:02:16;100157.61;;;8.15;97.81
57412;BME280;43247;52.828;-8.980;2024-02-14T02:03:16;100157.47;;;8.14;97.80
57412;BME280;43247;52.828;-8.980;2024-02-14T02:04:16;100162.36;;;8.13;97.74
57412;BME280;43247;52.828;-8.980;2024-02-14T02:05:16;100161.75;;;8.13;97.55
57412;BME280;43247;52.828;-8.980;2024-02-14T02:06:16;100161.25;;;8.14;96.98
57412;BME280;43247;52.828;-8.980;2024-02-14T02:07:16;100159.96;;;8.17;96.70
57412;BME280;43247;52.828;-8.980;2024-02-14T02:08:17;100159.38;;;8.18;96.58
57412;BME280;43247;52.828;-8.980;2024-02-14T02:09:17;100159.60;;;8.18;96.61
57412;BME280;43247;52.828;-8.980;2024-02-14T02:10:17;100159.43;;;8.18;96.66
57412;BME280;43247;52.828;-8.980;2024-02-14T02:11:17;100159.71;;;8.17;96.74
57412;BME280;43247;52.828;-8.980;2024-02-14T02:12:17;100158.67;;;8.17;96.77
57412;BME280;43247;52.828;-8.980;2024-02-14T02:13:17;100157.88;;;8.17;96.87
57412;BME280;43247;52.828;-8.980;2024-02-14T02:14:18;100161.27;;;8.16;96.94
57412;BME280;43247;52.828;-8.980;2024-02-14T02:15:18;100161.48;;;8.16;97.03
57412;BME280;43247;52.828;-8.980;2024-02-14T02:16:19;100158.99;;;8.16;97.12
57412;BME280;43247;52.828;-8.980;2024-02-14T02:17:19;100157.84;;;8.16;97.15
57412;BME280;43247;52.828;-8.980;2024-02-14T02:18:19;100155.89;;;8.16;97.21
57412;BME280;43247;52.828;-8.980;2024-02-14T02:19:20;100156.91;;;8.15;97.27
57412;BME280;43247;52.828;-8.980;2024-02-14T02:20:20;100155.36;;;8.15;97.35
57412;BME280;43247;52.828;-8.980;2024-02-14T02:21:20;100153.38;;;8.15;97.41
57412;BME280;43247;52.828;-8.980;2024-02-14T02:22:20;100156.24;;;8.15;97.47
57412;BME280;43247;52.828;-8.980;2024-02-14T02:23:20;100156.30;;;8.15;97.53
57412;BME280;43247;52.828;-8.980;2024-02-14T02:24:21;100159.73;;;8.15;97.59
57412;BME280;43247;52.828;-8.980;2024-02-14T02:25:21;100161.28;;;8.14;97.62
57412;BME280;43247;52.828;-8.980;2024-02-14T02:26:21;100164.40;;;8.14;97.67
57412;BME280;43247;52.828;-8.980;2024-02-14T02:27:21;100165.85;;;8.14;97.75
57412;BME280;43247;52.828;-8.980;2024-02-14T02:28:21;100171.97;;;8.13;97.80
57412;BME280;43247;52.828;-8.980;2024-02-14T02:29:22;100178.38;;;8.13;97.80
57412;BME280;43247;52.828;-8.980;2024-02-14T02:30:22;100176.45;;;8.14;97.83
57412;BME280;43247;52.828;-8.980;2024-02-14T02:31:22;100170.35;;;8.14;97.82
57412;BME280;43247;52.828;-8.980;2024-02-14T02:32:22;100169.06;;;8.13;97.81
57412;BME280;43247;52.828;-8.980;2024-02-14T02:33:22;100165.67;;;8.14;97.81
57412;BME280;43247;52.828;-8.980;2024-02-14T02:34:22;100166.64;;;8.15;97.79
57412;BME280;43247;52.828;-8.980;2024-02-14T02:35:23;100167.49;;;8.15;97.76
57412;BME280;43247;52.828;-8.980;2024-02-14T02:36:23;100169.19;;;8.15;97.76
57412;BME280;43247;52.828;-8.980;2024-02-14T02:37:23;100161.24;;;8.15;97.75
57412;BME280;43247;52.828;-8.980;2024-02-14T02:38:23;100161.25;;;8.15;97.75
57412;BME280;43247;52.828;-8.980;2024-02-14T02:39:23;100161.28;;;8.15;97.77
57412;BME280;43247;52.828;-8.980;2024-02-14T02:40:24;100161.45;;;8.16;97.74
57412;BME280;43247;52.828;-8.980;2024-02-14T02:41:24;100160.94;;;8.16;97.72
57412;BME280;43247;52.828;-8.980;2024-02-14T02:42:24;100158.86;;;8.14;97.61
57412;BME280;43247;52.828;-8.980;2024-02-14T02:43:24;100156.09;;;8.17;97.46
57412;BME280;43247;52.828;-8.980;2024-02-14T02:44:24;100152.44;;;8.19;97.64
57412;BME280;43247;52.828;-8.980;2024-02-14T02:45:25;100148.78;;;8.18;98.00
57412;BME280;43247;52.828;-8.980;2024-02-14T02:46:25;100151.85;;;8.18;98.19
57412;BME280;43247;52.828;-8.980;2024-02-14T02:47:25;100153.30;;;8.17;98.26
57412;BME280;43247;52.828;-8.980;2024-02-14T02:48:25;100152.69;;;8.18;98.29
57412;BME280;43247;52.828;-8.980;2024-02-14T02:49:25;100154.75;;;8.18;98.27
57412;BME280;43247;52.828;-8.980;2024-02-14T02:50:25;100152.97;;;8.18;98.27
57412;BME280;43247;52.828;-8.980;2024-02-14T02:51:26;100157.94;;;8.18;98.18
57412;BME280;43247;52.828;-8.980;2024-02-14T02:52:26;100156.62;;;8.20;98.11
57412;BME280;43247;52.828;-8.980;2024-02-14T02:53:26;100156.96;;;8.19;98.09
57412;BME280;43247;52.828;-8.980;2024-02-14T02:54:26;100161.23;;;8.20;98.05
57412;BME280;43247;52.828;-8.980;2024-02-14T02:55:26;100160.19;;;8.20;98.01
57412;BME280;43247;52.828;-8.980;2024-02-14T02:56:27;100161.94;;;8.21;97.98
57412;BME280;43247;52.828;-8.980;2024-02-14T02:57:27;100160.87;;;8.22;97.93
57412;BME280;43247;52.828;-8.980;2024-02-14T02:58:27;100159.90;;;8.22;97.91
57412;BME280;43247;52.828;-8.980;2024-02-14T02:59:27;100159.02;;;8.22;97.88
57412;BME280;43247;52.828;-8.980;2024-02-14T03:00:27;100156.86;;;8.24;97.87
57412;BME280;43247;52.828;-8.980;2024-02-14T03:01:27;100156.14;;;8.24;97.85
57412;BME280;43247;52.828;-8.980;2024-02-14T03:02:28;100152.91;;;8.24;97.83
57412;BME280;43247;52.828;-8.980;2024-02-14T03:03:28;100155.55;;;8.25;97.80
57412;BME280;43247;52.828;-8.980;2024-02-14T03:04:28;100151.20;;;8.25;97.77
57412;BME280;43247;52.828;-8.980;2024-02-14T03:05:28;100149.75;;;8.25;97.77
57412;BME280;43247;52.828;-8.980;2024-02-14T03:06:29;100144.07;;;8.26;97.73
57412;BME280;43247;52.828;-8.980;2024-02-14T03:07:29;100145.01;;;8.27;97.70
57412;BME280;43247;52.828;-8.980;2024-02-14T03:08:29;100145.62;;;8.27;97.68
57412;BME280;43247;52.828;-8.980;2024-02-14T03:09:29;100146.52;;;8.28;97.65
57412;BME280;43247;52.828;-8.980;2024-02-14T03:10:29;100148.21;;;8.28;97.65
57412;BME280;43247;52.828;-8.980;2024-02-14T03:11:29;100147.89;;;8.28;97.63
57412;BME280;43247;52.828;-8.980;2024-02-14T03:12:29;100146.82;;;8.29;97.58
57412;BME280;43247;52.828;-8.980;2024-02-14T03:13:30;100144.31;;;8.30;97.57
57412;BME280;43247;52.828;-8.980;2024-02-14T03:14:30;100142.98;;;8.30;97.57
57412;BME280;43247;52.828;-8.980;2024-02-14T03:15:30;100138.30;;;8.30;97.55
57412;BME280;43247;52.828;-8.980;2024-02-14T03:16:30;100139.55;;;8.30;97.53
57412;BME280;43247;52.828;-8.980;2024-02-14T03:17:30;100138.47;;;8.31;97.53
57412;BME280;43247;52.828;-8.980;2024-02-14T03:18:31;100139.29;;;8.31;97.50
57412;BME280;43247;52.828;-8.980;2024-02-14T03:19:32;100139.70;;;8.32;97.48
57412;BME280;43247;52.828;-8.980;2024-02-14T03:20:32;100140.97;;;8.33;97.47
57412;BME280;43247;52.828;-8.980;2024-02-14T03:21:32;100142.55;;;8.33;97.46
57412;BME280;43247;52.828;-8.980;2024-02-14T03:22:32;100142.83;;;8.34;97.46
57412;BME280;43247;52.828;-8.980;2024-02-14T03:23:33;100141.17;;;8.33;97.43
57412;BME280;43247;52.828;-8.980;2024-02-14T03:24:33;100140.12;;;8.34;97.43
57412;BME280;43247;52.828;-8.980;2024-02-14T03:25:33;100139.80;;;8.35;97.43
57412;BME280;43247;52.828;-8.980;2024-02-14T03:26:33;100141.42;;;8.35;97.43
57412;BME280;43247;52.828;-8.980;2024-02-14T03:27:33;100141.70;;;8.35;97.43
57412;BME280;43247;52.828;-8.980;2024-02-14T03:28:34;100141.71;;;8.35;97.37
57412;BME280;43247;52.828;-8.980;2024-02-14T03:29:34;100141.36;;;8.36;97.32
57412;BME280;43247;52.828;-8.980;2024-02-14T03:30:34;100141.19;;;8.36;97.35
57412;BME280;43247;52.828;-8.980;2024-02-14T03:31:34;100140.72;;;8.35;97.35
57412;BME280;43247;52.828;-8.980;2024-02-14T03:32:34;100141.73;;;8.36;97.35
57412;BME280;43247;52.828;-8.980;2024-02-14T03:33:34;100143.94;;;8.36;97.35
57412;BME280;43247;52.828;-8.980;2024-02-14T03:34:35;100143.08;;;8.37;97.36
57412;BME280;43247;52.828;-8.980;2024-02-14T03:35:35;100142.92;;;8.37;97.33
57412;BME280;43247;52.828;-8.980;2024-02-14T03:36:37;100141.42;;;8.37;97.37
57412;BME280;43247;52.828;-8.980;2024-02-14T03:37:36;100140.36;;;8.38;97.32
57412;BME280;43247;52.828;-8.980;2024-02-14T03:38:36;100143.06;;;8.38;97.32
57412;BME280;43247;52.828;-8.980;2024-02-14T03:39:36;100142.86;;;8.38;97.32
57412;BME280;43247;52.828;-8.980;2024-02-14T03:40:36;100144.00;;;8.39;97.28
57412;BME280;43247;52.828;-8.980;2024-02-14T03:41:37;100142.79;;;8.40;97.27
57412;BME280;43247;52.828;-8.980;2024-02-14T03:42:37;100139.88;;;8.39;97.29
57412;BME280;43247;52.828;-8.980;2024-02-14T03:43:37;100136.52;;;8.40;97.31
57412;BME280;43247;52.828;-8.980;2024-02-14T03:44:37;100135.54;;;8.40;97.26
57412;BME280;43247;52.828;-8.980;2024-02-14T03:45:37;100136.61;;;8.41;97.26
57412;BME280;43247;52.828;-8.980;2024-02-14T03:46:37;100135.99;;;8.40;97.26
57412;BME280;43247;52.828;-8.980;2024-02-14T03:47:38;100134.87;;;8.41;97.25
57412;BME280;43247;52.828;-8.980;2024-02-14T03:48:38;100133.66;;;8.41;97.28
57412;BME280;43247;52.828;-8.980;2024-02-14T03:49:38;100131.53;;;8.41;97.26
57412;BME280;43247;52.828;-8.980;2024-02-14T03:50:39;100133.40;;;8.41;97.26
57412;BME280;43247;52.828;-8.980;2024-02-14T03:51:38;100132.78;;;8.41;97.26
57412;BME280;43247;52.828;-8.980;2024-02-14T03:52:39;100131.62;;;8.41;97.24
57412;BME280;43247;52.828;-8.980;2024-02-14T03:53:39;100134.46;;;8.42;97.22
57412;BME280;43247;52.828;-8.980;2024-02-14T03:54:39;100131.83;;;8.42;97.24
57412;BME280;43247;52.828;-8.980;2024-02-14T03:55:39;100131.69;;;8.43;97.24
57412;BME280;43247;52.828;-8.980;2024-02-14T03:56:39;100133.85;;;8.43;97.24
57412;BME280;43247;52.828;-8.980;2024-02-14T03:57:39;100133.01;;;8.43;97.16
57412;BME280;43247;52.828;-8.980;2024-02-14T03:58:40;100132.80;;;8.41;96.63
57412;BME280;43247;52.828;-8.980;2024-02-14T03:59:40;100131.63;;;8.45;96.68
57412;BME280;43247;52.828;-8.980;2024-02-14T04:00:40;100131.87;;;8.46;96.85
57412;BME280;43247;52.828;-8.980;2024-02-14T04:01:44;100132.25;;;8.45;97.00
57412;BME280;43247;52.828;-8.980;2024-02-14T04:02:40;100130.14;;;8.44;97.12
57412;BME280;43247;52.828;-8.980;2024-02-14T04:03:40;100130.02;;;8.43;97.19
57412;BME280;43247;52.828;-8.980;2024-02-14T04:04:42;100126.64;;;8.42;97.24
57412;BME280;43247;52.828;-8.980;2024-02-14T04:05:41;100127.34;;;8.42;97.32
57412;BME280;43247;52.828;-8.980;2024-02-14T04:06:41;100128.21;;;8.41;97.35
57412;BME280;43247;52.828;-8.980;2024-02-14T04:07:41;100128.44;;;8.40;97.38
57412;BME280;43247;52.828;-8.980;2024-02-14T04:08:41;100130.40;;;8.40;97.42
57412;BME280;43247;52.828;-8.980;2024-02-14T04:09:42;100129.63;;;8.39;97.48
57412;BME280;43247;52.828;-8.980;2024-02-14T04:10:42;100130.21;;;8.39;97.51
57412;BME280;43247;52.828;-8.980;2024-02-14T04:11:43;100131.44;;;8.39;97.52
57412;BME280;43247;52.828;-8.980;2024-02-14T04:12:43;100133.71;;;8.38;97.52
57412;BME280;43247;52.828;-8.980;2024-02-14T04:13:43;100132.28;;;8.38;97.52
57412;BME280;43247;52.828;-8.980;2024-02-14T04:14:43;100131.16;;;8.38;97.53
57412;BME280;43247;52.828;-8.980;2024-02-14T04:15:43;100129.66;;;8.37;97.56
57412;BME280;43247;52.828;-8.980;2024-02-14T04:16:43;100132.81;;;8.38;97.57
57412;BME280;43247;52.828;-8.980;2024-02-14T04:17:44;100135.05;;;8.37;97.57
57412;BME280;43247;52.828;-8.980;2024-02-14T04:18:44;100134.57;;;8.37;97.57
57412;BME280;43247;52.828;-8.980;2024-02-14T04:19:44;100134.06;;;8.38;97.56
57412;BME280;43247;52.828;-8.980;2024-02-14T04:20:44;100131.57;;;8.37;97.57
57412;BME280;43247;52.828;-8.980;2024-02-14T04:21:45;100131.42;;;8.37;97.57
57412;BME280;43247;52.828;-8.980;2024-02-14T04:22:45;100132.62;;;8.37;97.57
57412;BME280;43247;52.828;-8.980;2024-02-14T04:23:45;100132.99;;;8.37;97.60
57412;BME280;43247;52.828;-8.980;2024-02-14T04:24:45;100133.70;;;8.37;97.57
57412;BME280;43247;52.828;-8.980;2024-02-14T04:25:45;100136.74;;;8.37;97.55
57412;BME280;43247;52.828;-8.980;2024-02-14T04:26:45;100141.62;;;8.38;97.54
57412;BME280;43247;52.828;-8.980;2024-02-14T04:27:45;100144.55;;;8.38;97.58
57412;BME280;43247;52.828;-8.980;2024-02-14T04:28:46;100143.68;;;8.38;97.55
57412;BME280;43247;52.828;-8.980;2024-02-14T04:29:46;100139.53;;;8.38;97.55
57412;BME280;43247;52.828;-8.980;2024-02-14T04:30:46;100137.48;;;8.38;97.52
57412;BME280;43247;52.828;-8.980;2024-02-14T04:31:46;100136.15;;;8.36;96.95
57412;BME280;43247;52.828;-8.980;2024-02-14T04:32:46;100133.91;;;8.40;96.99
57412;BME280;43247;52.828;-8.980;2024-02-14T04:33:46;100131.96;;;8.40;97.14
57412;BME280;43247;52.828;-8.980;2024-02-14T04:34:47;100131.46;;;8.40;97.25
57412;BME280;43247;52.828;-8.980;2024-02-14T04:35:47;100133.57;;;8.40;97.34
57412;BME280;43247;52.828;-8.980;2024-02-14T04:36:47;100131.24;;;8.39;97.42
57412;BME280;43247;52.828;-8.980;2024-02-14T04:37:47;100133.70;;;8.39;97.47
57412;BME280;43247;52.828;-8.980;2024-02-14T04:38:47;100132.21;;;8.38;97.51
57412;BME280;43247;52.828;-8.980;2024-02-14T04:39:48;100133.95;;;8.38;97.53
57412;BME280;43247;52.828;-8.980;2024-02-14T04:40:48;100131.02;;;8.38;97.56
57412;BME280;43247;52.828;-8.980;2024-02-14T04:41:48;100128.53;;;8.38;97.56
57412;BME280;43247;52.828;-8.980;2024-02-14T04:42:48;100125.74;;;8.38;97.57
57412;BME280;43247;52.828;-8.980;2024-02-14T04:43:48;100126.03;;;8.37;97.62
57412;BME280;43247;52.828;-8.980;2024-02-14T04:44:49;100127.66;;;8.37;97.63
57412;BME280;43247;52.828;-8.980;2024-02-14T04:45:49;100129.34;;;8.37;97.65
57412;BME280;43247;52.828;-8.980;2024-02-14T04:46:49;100126.48;;;8.37;97.65
57412;BME280;43247;52.828;-8.980;2024-02-14T04:47:49;100126.43;;;8.37;97.67
57412;BME280;43247;52.828;-8.980;2024-02-14T04:48:49;100124.85;;;8.37;97.67
57412;BME280;43247;52.828;-8.980;2024-02-14T04:49:49;100125.49;;;8.37;97.66
57412;BME280;43247;52.828;-8.980;2024-02-14T04:50:50;100124.83;;;8.37;97.69
57412;BME280;43247;52.828;-8.980;2024-02-14T04:51:51;100124.66;;;8.37;97.69
57412;BME280;43247;52.828;-8.980;2024-02-14T04:52:50;100126.96;;;8.37;97.69
57412;BME280;43247;52.828;-8.980;2024-02-14T04:53:50;100127.50;;;8.37;97.70
57412;BME280;43247;52.828;-8.980;2024-02-14T04:54:50;100129.16;;;8.37;97.71
57412;BME280;43247;52.828;-8.980;2024-02-14T04:55:51;100128.54;;;8.37;97.68
57412;BME280;43247;52.828;-8.980;2024-02-14T04:56:51;100130.40;;;8.37;97.69
57412;BME280;43247;52.828;-8.980;2024-02-14T04:57:51;100134.84;;;8.38;97.68
57412;BME280;43247;52.828;-8.980;2024-02-14T04:58:52;100135.66;;;8.38;97.66
57412;BME280;43247;52.828;-8.980;2024-02-14T04:59:51;100135.71;;;8.38;97.65
57412;BME280;43247;52.828;-8.980;2024-02-14T05:00:52;100135.60;;;8.39;97.64
57412;BME280;43247;52.828;-8.980;2024-02-14T05:01:52;100133.46;;;8.39;97.65
57412;BME280;43247;52.828;-8.980;2024-02-14T05:02:52;100132.17;;;8.39;97.65
57412;BME280;43247;52.828;-8.980;2024-02-14T05:03:52;100128.29;;;8.39;97.64
57412;BME280;43247;52.828;-8.980;2024-02-14T05:04:52;100127.98;;;8.39;97.63
57412;BME280;43247;52.828;-8.980;2024-02-14T05:05:52;100125.61;;;8.40;97.63
57412;BME280;43247;52.828;-8.980;2024-02-14T05:06:53;100126.34;;;8.40;97.64
57412;BME280;43247;52.828;-8.980;2024-02-14T05:07:53;100128.01;;;8.40;97.61
57412;BME280;43247;52.828;-8.980;2024-02-14T05:08:53;100129.44;;;8.41;97.61
57412;BME280;43247;52.828;-8.980;2024-02-14T05:09:53;100128.34;;;8.41;97.58
57412;BME280;43247;52.828;-8.980;2024-02-14T05:10:53;100128.05;;;8.41;97.58
57412;BME280;43247;52.828;-8.980;2024-02-14T05:11:53;100128.28;;;8.41;97.60
57412;BME280;43247;52.828;-8.980;2024-02-14T05:12:54;100129.87;;;8.41;97.58
57412;BME280;43247;52.828;-8.980;2024-02-14T05:13:54;100129.07;;;8.41;97.56
57412;BME280;43247;52.828;-8.980;2024-02-14T05:14:54;100128.04;;;8.42;97.54